Friday, October 19, 2018, 10:56 AM CDT
Back to Local

KIGQ, Chicago, Lansing Municipal Airport

Location: Chicago Heights, IL, United States Lat: 41.54
Local Time: 10:56 AM CDT (15:56 GMT) Lon: -87.532
Time Zone: US/Central Elev: 616 ft

Show me the last for .
Show Coded

Time T Td Feel RH Dir Speed Gust Alt SLP Vis Weather Sky Remarks
2018-10-19 10:35 50 34 44 55 220° 16 - 30.11 - 10 BKN120 None
2018-10-19 10:15 49 34 43 56 210° 14 - 30.11 - 10 SCT120 None
2018-10-19 09:55 48 34 43 58 210° 13 - 30.13 - 10 SCT120 None
2018-10-19 09:35 47 34 41 58 220° 13 17 30.14 - 10 CLR None
2018-10-19 09:15 47 33 41 59 230° 13 - 30.14 - 10 CLR None
2018-10-19 08:55 47 33 40 59 230° 12 16 30.15 - 10 CLR None
2018-10-19 08:35 46 33 42 58 220° 9 - 30.16 - 10 CLR None
2018-10-19 08:15 46 33 41 59 210° 10 - 30.16 - 10 CLR None
2018-10-19 07:55 44 32 40 62 210° 8 - 30.17 - 10 CLR None
2018-10-19 07:35 44 32 39 63 210° 9 - 30.17 - 10 CLR None
2018-10-19 07:15 43 32 38 64 210° 9 - 30.17 - 10 CLR None
2018-10-19 06:55 43 32 39 64 190° 7 - 30.18 - 10 CLR 6-hr Min Temp (7am): 37.4°F
6-hr Max Temp (7am): 43.3°F
2018-10-19 06:35 43 32 38 64 210° 9 - 30.19 - 10 CLR None
2018-10-19 06:15 43 32 39 65 220° 7 - 30.20 - 10 CLR None
2018-10-19 05:55 43 32 38 64 210° 8 - 30.20 - 10 CLR None
2018-10-19 05:35 42 32 38 67 210° 7 - 30.22 - 10 CLR None
2018-10-19 05:15 40 32 38 72 210° 3 - 30.22 - 10 CLR None
2018-10-19 04:55 42 32 37 67 200° 7 - 30.23 - 10 CLR None
2018-10-19 04:35 42 32 37 68 200° 8 - 30.24 - 10 CLR None
2018-10-19 04:15 41 32 37 68 210° 7 - 30.25 - 10 CLR None
2018-10-19 03:55 40 31 35 70 200° 7 - 30.25 - 10 CLR None
2018-10-19 03:35 40 31 36 68 210° 6 - 30.26 - 10 CLR None
2018-10-19 03:15 40 30 35 68 230° 7 - 30.26 - 10 CLR None
2018-10-19 02:55 40 30 36 68 220° 6 - 30.27 - 10 CLR None
2018-10-19 02:35 40 30 35 67 220° 8 - 30.28 - 10 CLR None
2018-10-19 02:15 40 29 36 66 220° 5 - 30.29 - 10 CLR None
2018-10-19 01:55 40 29 37 66 230° 3 - 30.29 - 10 CLR None
2018-10-19 01:35 38 29 35 71 200° 3 - 30.29 - 10 CLR None
2018-10-19 01:15 38 29 35 70 190° 3 - 30.30 - 10 CLR None
2018-10-19 00:55 40 29 37 65 200° 3 - 30.30 - 10 CLR 6-hr Min Temp (1am): 39.6°F
6-hr Max Temp (1am): 44.8°F
24-hr Min Temp (1am): 28.4°F
24-hr Max Temp (1am): 57.6°F
2018-10-19 00:35 41 29 38 62 220° 5 - 30.31 - 10 CLR None
2018-10-19 00:15 41 29 38 62 220° 5 - 30.31 - 10 CLR None
2018-10-18 23:55 41 30 38 64 220° 5 - 30.31 - 10 CLR None
2018-10-18 23:35 41 30 37 64 220° 6 - 30.32 - 10 CLR None
2018-10-18 23:15 41 30 38 65 210° 5 - 30.33 - 10 CLR None
2018-10-18 22:55 43 29 40 58 210° 5 - 30.33 - 10 CLR None
2018-10-18 22:35 42 29 38 60 220° 7 - 30.33 - 10 CLR None
2018-10-18 22:15 43 29 39 59 210° 6 - 30.34 - 10 CLR None
2018-10-18 21:55 42 30 40 60 210° 5 - 30.34 - 10 CLR None
2018-10-18 21:35 44 30 40 57 210° 6 - 30.34 - 10 CLR None
2018-10-18 21:15 44 30 39 57 210° 8 - 30.35 - 10 CLR None
2018-10-18 20:55 44 30 39 58 200° 8 - 30.36 - 10 CLR None
2018-10-18 20:35 42 30 38 61 210° 6 - 30.36 - 10 CLR None
2018-10-18 20:15 43 31 39 62 210° 6 - 30.36 - 10 CLR None
2018-10-18 19:55 44 30 40 59 200° 6 - 30.36 - 10 CLR None
2018-10-18 19:35 43 30 39 59 200° 6 - 30.36 - 10 CLR None
2018-10-18 19:15 44 29 41 55 190° 6 - 30.37 - 7 CLR None
2018-10-18 18:55 45 29 42 53 180° 6 - 30.37 - 7 CLR 6-hr Min Temp (7pm): 45.0°F
6-hr Max Temp (7pm): 57.6°F
2018-10-18 18:35 47 28 45 46 200° 6 - 30.37 - 10 CLR None
2018-10-18 18:15 50 29 - 44 210° 6 - 30.37 - 10 CLR None
2018-10-18 17:55 52 29 - 41 210° 6 - 30.38 - 10 CLR None
2018-10-18 17:35 54 29 - 37 220° 7 - 30.38 - 10 CLR None
2018-10-18 17:15 56 29 - 35 230° 7 - 30.39 - 10 CLR None
2018-10-18 16:55 56 28 - 33 240° 8 - 30.39 - 10 CLR None
2018-10-18 16:35 57 28 - 32 220° 9 - 30.40 - 10 CLR None
2018-10-18 16:15 57 28 - 33 220° 9 - 30.41 - 10 CLR None
2018-10-18 15:55 57 28 - 32 200° 8 - 30.41 - 10 CLR None
2018-10-18 15:35 57 28 - 32 240° 9 - 30.41 - 10 CLR None
2018-10-18 15:15 57 28 - 32 210° 6 - 30.42 - 10 CLR None
2018-10-18 14:55 57 29 - 33 230° 7 - 30.43 - 10 CLR None
2018-10-18 14:35 57 31 - 36 220° 8 - 30.44 - 10 CLR None
2018-10-18 14:15 56 29 - 34 250° 9 - 30.45 - 10 CLR None
2018-10-18 13:55 56 29 - 35 250° 7 - 30.46 - 10 CLR None
2018-10-18 13:35 55 29 - 35 220° 8 - 30.47 - 10 CLR None
2018-10-18 13:15 55 29 - 36 270° 10 - 30.49 - 10 CLR None
2018-10-18 12:55 54 29 - 36 220° 8 - 30.49 - 10 CLR 6-hr Min Temp (1pm): 28.4°F
6-hr Max Temp (1pm): 54.9°F
2018-10-18 12:35 54 29 - 38 240° 9 - 30.51 - 10 CLR None
2018-10-18 12:15 54 29 - 39 240° 9 - 30.52 - 10 CLR None
2018-10-18 11:55 53 29 - 39 240° 7 - 30.53 - 10 CLR None
2018-10-18 11:35 52 28 - 38 250° 8 - 30.53 - 10 CLR None
2018-10-18 11:15 52 29 - 41 230° 7 - 30.53 - 10 CLR None

Support USWX by starting your Amazon purchase here.